Time;durP1;ratioP1;P1;durP2;ratioP2;P2;SDS_P1;SDS_P2;PMS_P1;PMS_P2;Temp;Humidity;BMP_temperature;BMP_pressure;BME280_temperature;BME280_humidity;BME280_pressure;Samples;Min_cycle;Max_cycle;Signal;HPM_P1;HPM_P2
2024/01/21 00:02:11;;;;;;;0.10;0.10;;;;;;;2.15;53.44;102398.06;5092009;28;20032;-81
2024/01/21 00:04:38;;;;;;;0.20;0.20;;;;;;;2.11;53.08;102390.94;5093186;28;20032;-81
2024/01/21 00:07:04;;;;;;;0.20;0.20;;;;;;;2.14;52.74;102401.50;5093450;28;20562;-82
2024/01/21 00:09:30;;;;;;;0.20;0.20;;;;;;;2.20;52.67;102391.28;5094529;28;20115;-82
2024/01/21 00:11:56;;;;;;;0.20;0.20;;;;;;;2.19;52.35;102379.03;5093387;28;20039;-82
2024/01/21 00:14:23;;;;;;;0.17;0.17;;;;;;;2.22;52.52;102380.91;5094472;28;20028;-81
2024/01/21 00:16:49;;;;;;;0.35;0.35;;;;;;;2.26;52.27;102378.47;5098889;28;20031;-81
2024/01/21 00:19:15;;;;;;;0.45;0.45;;;;;;;2.26;51.74;102381.06;5100550;28;20060;-81
2024/01/21 00:21:41;;;;;;;0.32;0.32;;;;;;;2.33;51.71;102376.09;5095366;28;20078;-81
2024/01/21 00:24:07;;;;;;;0.20;0.20;;;;;;;2.32;51.33;102374.28;5092131;28;20027;-81
2024/01/21 00:26:34;;;;;;;0.20;0.20;;;;;;;2.38;51.75;102374.53;5094760;28;20091;-81
2024/01/21 00:29:00;;;;;;;0.20;0.20;;;;;;;2.37;51.24;102363.19;5095813;28;20035;-81
2024/01/21 00:31:28;;;;;;;0.20;0.20;;;;;;;2.49;51.55;102357.50;5095951;28;20035;-81
2024/01/21 00:33:54;;;;;;;0.20;0.20;;;;;;;2.46;50.81;102362.66;5089871;28;20035;-81
2024/01/21 00:36:21;;;;;;;0.35;0.35;;;;;;;2.50;50.75;102343.59;5088489;28;20452;-81
2024/01/21 00:38:47;;;;;;;0.10;0.10;;;;;;;2.51;50.96;102334.94;5095292;28;20035;-81
2024/01/21 00:41:14;;;;;;;0.38;0.38;;;;;;;2.47;50.22;102324.28;5088163;28;20036;-83
2024/01/21 00:43:41;;;;;;;0.20;0.20;;;;;;;2.49;50.81;102309.53;5098531;28;20094;-82
2024/01/21 00:46:07;;;;;;;0.15;0.15;;;;;;;2.49;50.42;102307.81;5098813;28;20043;-81
2024/01/21 00:48:34;;;;;;;0.20;0.20;;;;;;;2.46;50.25;102305.09;5098128;28;20043;-82
2024/01/21 00:51:00;;;;;;;0.20;0.20;;;;;;;2.43;50.28;102286.69;5096141;28;20027;-82
2024/01/21 00:53:27;;;;;;;0.20;0.20;;;;;;;2.51;50.31;102292.19;5092808;28;20092;-81
2024/01/21 00:55:53;;;;;;;0.20;0.20;;;;;;;2.46;50.47;102268.47;5095280;28;20062;-82
2024/01/21 00:58:20;;;;;;;0.20;0.20;;;;;;;2.41;49.87;102260.44;5100591;28;20200;-82
2024/01/21 01:00:46;;;;;;;0.20;0.20;;;;;;;2.40;49.56;102242.97;5101682;28;20026;-81
2024/01/21 01:03:12;;;;;;;0.17;0.17;;;;;;;2.40;49.54;102229.00;5102915;28;20032;-82
2024/01/21 01:05:38;;;;;;;0.10;0.10;;;;;;;2.48;50.02;102224.94;5103868;28;20035;-80
2024/01/21 01:08:04;;;;;;;0.20;0.20;;;;;;;2.43;49.38;102231.75;5099638;28;20032;-80
2024/01/21 01:10:31;;;;;;;0.20;0.20;;;;;;;2.41;49.53;102217.72;5101510;28;20039;-79
2024/01/21 01:12:58;;;;;;;0.43;0.43;;;;;;;2.42;49.16;102230.84;5099144;28;20054;-79
2024/01/21 01:15:24;;;;;;;0.50;0.50;;;;;;;2.36;49.45;102229.72;5099716;28;20521;-80
2024/01/21 01:17:51;;;;;;;0.20;0.20;;;;;;;2.46;49.53;102220.50;5099796;28;20031;-79
2024/01/21 01:20:18;;;;;;;0.45;0.45;;;;;;;2.42;49.39;102227.34;5100844;28;20050;-80
2024/01/21 01:22:44;;;;;;;0.20;0.20;;;;;;;2.32;49.40;102223.50;5100367;28;20043;-80
2024/01/21 01:25:10;;;;;;;0.45;0.45;;;;;;;2.26;49.35;102229.38;5099793;28;20039;-81
2024/01/21 01:27:36;;;;;;;0.82;0.82;;;;;;;2.24;49.29;102222.31;5098555;28;20024;-81
2024/01/21 01:30:03;;;;;;;0.20;0.20;;;;;;;2.23;49.54;102226.66;5101219;28;20096;-80
2024/01/21 01:32:29;;;;;;;2.78;2.58;;;;;;;2.17;49.34;102222.91;5100085;28;20603;-81
2024/01/21 01:34:56;;;;;;;0.20;0.20;;;;;;;2.17;49.61;102217.69;5099685;28;20495;-81
2024/01/21 01:37:23;;;;;;;0.20;0.20;;;;;;;2.16;49.73;102216.81;5100825;28;20039;-81
2024/01/21 01:39:49;;;;;;;0.20;0.20;;;;;;;2.12;50.06;102214.94;5098660;28;20085;-81
2024/01/21 01:42:15;;;;;;;0.10;0.10;;;;;;;2.15;50.15;102204.56;5098637;28;20024;-81
2024/01/21 01:44:42;;;;;;;0.20;0.20;;;;;;;2.15;49.88;102196.72;5096284;28;20161;-81
2024/01/21 01:47:09;;;;;;;0.30;0.30;;;;;;;2.12;49.95;102198.34;5097222;28;20024;-81
2024/01/21 01:49:39;;;;;;;0.20;0.20;;;;;;;2.23;49.96;102197.91;5098020;28;20032;-81
2024/01/21 01:52:05;;;;;;;0.20;0.20;;;;;;;2.24;49.83;102204.91;5097677;28;20059;-81
2024/01/21 01:54:34;;;;;;;0.20;0.20;;;;;;;2.21;50.42;102204.78;5097552;28;20062;-81
2024/01/21 01:57:03;;;;;;;0.20;0.20;;;;;;;2.15;50.47;102199.34;5097820;28;20715;-81
2024/01/21 01:59:31;;;;;;;1.48;1.48;;;;;;;2.22;50.58;102201.34;5097471;28;20119;-81
2024/01/21 02:01:57;;;;;;;0.28;0.28;;;;;;;2.24;50.29;102189.22;5095416;28;20036;-81
2024/01/21 02:04:24;;;;;;;0.20;0.20;;;;;;;2.21;50.20;102178.63;5097035;28;20081;-81
2024/01/21 02:06:52;;;;;;;0.20;0.20;;;;;;;2.29;50.46;102158.00;5098637;28;20028;-80
2024/01/21 02:09:18;;;;;;;0.20;0.20;;;;;;;2.28;50.39;102157.94;5097531;28;20020;-81
2024/01/21 02:11:44;;;;;;;0.20;0.20;;;;;;;2.25;49.97;102153.50;5093723;28;20411;-81
2024/01/21 02:14:12;;;;;;;0.20;0.20;;;;;;;2.27;49.87;102157.06;5099691;28;20046;-81
2024/01/21 02:16:38;;;;;;;0.20;0.20;;;;;;;2.18;50.14;102147.16;5099178;28;20035;-81
2024/01/21 02:19:10;;;;;;;0.20;0.20;;;;;;;2.22;49.38;102143.81;5094513;28;20035;-81
2024/01/21 02:21:37;;;;;;;0.30;0.30;;;;;;;2.22;49.58;102138.59;5095009;28;20035;-82
2024/01/21 02:24:03;;;;;;;0.20;0.20;;;;;;;2.29;49.98;102128.34;5095666;28;20437;-81
2024/01/21 02:26:29;;;;;;;0.10;0.10;;;;;;;2.21;49.46;102123.72;5090819;28;20518;-82
2024/01/21 02:28:55;;;;;;;0.20;0.20;;;;;;;2.26;49.31;102135.22;5095611;28;20023;-82
2024/01/21 02:31:22;;;;;;;0.22;0.22;;;;;;;2.26;49.34;102127.38;5095014;28;20028;-82
2024/01/21 02:33:48;;;;;;;0.20;0.20;;;;;;;2.30;49.70;102133.63;5095279;28;20368;-81
2024/01/21 02:36:14;;;;;;;0.20;0.20;;;;;;;2.29;49.41;102128.34;5094861;28;20032;-82
2024/01/21 02:38:40;;;;;;;0.20;0.20;;;;;;;2.35;49.77;102124.19;5095133;28;20032;-81
2024/01/21 02:41:06;;;;;;;0.20;0.20;;;;;;;2.28;49.85;102117.00;5095566;28;20116;-80
2024/01/21 02:43:32;;;;;;;0.20;0.20;;;;;;;2.34;49.43;102109.34;5094923;28;20045;-80
2024/01/21 02:45:59;;;;;;;0.20;0.20;;;;;;;2.38;49.81;102103.41;5095338;28;20028;-81
2024/01/21 02:48:25;;;;;;;0.17;0.17;;;;;;;2.34;49.98;102092.78;5097284;28;20100;-80
2024/01/21 02:50:51;;;;;;;0.20;0.20;;;;;;;2.37;49.43;102085.91;5096614;28;20024;-80
2024/01/21 02:53:17;;;;;;;0.10;0.10;;;;;;;2.34;49.75;102077.06;5094886;28;20032;-81
2024/01/21 02:55:43;;;;;;;0.20;0.20;;;;;;;2.36;49.84;102078.03;5096187;28;20035;-80
2024/01/21 02:58:09;;;;;;;0.20;0.20;;;;;;;2.44;49.78;102071.31;5093167;28;20513;-80
2024/01/21 03:00:36;;;;;;;0.20;0.20;;;;;;;2.47;49.49;102074.03;5099089;28;20028;-80
2024/01/21 03:03:02;;;;;;;0.20;0.20;;;;;;;2.40;49.60;102067.69;5091712;28;20039;-80
2024/01/21 03:05:28;;;;;;;0.20;0.20;;;;;;;2.42;49.75;102060.81;5099296;28;20073;-81
2024/01/21 03:07:54;;;;;;;0.20;0.20;;;;;;;2.51;49.73;102069.81;5099260;28;20050;-80
2024/01/21 03:10:20;;;;;;;0.30;0.30;;;;;;;2.48;50.03;102062.75;5097782;28;20040;-80
2024/01/21 03:12:46;;;;;;;0.20;0.20;;;;;;;2.49;49.81;102053.16;5101255;28;20054;-80
2024/01/21 03:15:13;;;;;;;0.60;0.60;;;;;;;2.43;49.67;102053.84;5099467;28;20035;-81
2024/01/21 03:17:39;;;;;;;0.22;0.22;;;;;;;2.53;49.95;102048.09;5099418;28;20023;-81
2024/01/21 03:20:06;;;;;;;0.20;0.20;;;;;;;2.58;50.38;102048.25;5095097;28;20092;-81
2024/01/21 03:22:32;;;;;;;0.20;0.20;;;;;;;2.50;49.77;102050.56;5091669;28;20039;-81
2024/01/21 03:24:58;;;;;;;0.20;0.20;;;;;;;2.43;49.87;102054.72;5090945;28;20024;-81
2024/01/21 03:27:25;;;;;;;0.20;0.20;;;;;;;2.49;50.13;102040.94;5094058;28;21482;-80
2024/01/21 03:29:51;;;;;;;0.10;0.10;;;;;;;2.62;50.17;102038.72;5093414;28;20119;-80
2024/01/21 03:32:17;;;;;;;0.60;0.60;;;;;;;2.58;50.39;102037.78;5093283;28;20028;-81
2024/01/21 03:34:44;;;;;;;0.20;0.20;;;;;;;2.54;50.60;102036.78;5093586;28;20028;-81
2024/01/21 03:37:11;;;;;;;0.20;0.20;;;;;;;2.58;50.22;102022.94;5092683;28;20123;-81
2024/01/21 03:39:37;;;;;;;0.20;0.20;;;;;;;2.51;50.49;102022.72;5092024;28;20035;-80
2024/01/21 03:42:04;;;;;;;0.20;0.20;;;;;;;2.53;50.46;102014.06;5096197;28;20085;-80
2024/01/21 03:44:30;;;;;;;0.20;0.20;;;;;;;2.47;50.42;102013.88;5108707;28;20032;-80
2024/01/21 03:46:56;;;;;;;0.30;0.30;;;;;;;2.44;50.84;101995.44;5107449;28;20073;-81
2024/01/21 03:49:22;;;;;;;0.25;0.25;;;;;;;2.50;50.95;101987.78;5096204;28;20076;-81
2024/01/21 03:51:48;;;;;;;0.45;0.45;;;;;;;2.52;51.14;101980.88;5098010;28;20024;-81
2024/01/21 03:54:14;;;;;;;0.20;0.20;;;;;;;2.43;50.98;101981.50;5096432;28;20491;-81
2024/01/21 03:56:40;;;;;;;0.20;0.20;;;;;;;2.52;50.87;101974.78;5093697;28;20123;-81
2024/01/21 03:59:07;;;;;;;0.30;0.30;;;;;;;2.52;50.69;101986.13;5095013;28;20032;-81
2024/01/21 04:01:33;;;;;;;0.20;0.20;;;;;;;2.56;51.36;101980.13;5097682;28;20272;-82
2024/01/21 04:03:59;;;;;;;0.13;0.13;;;;;;;2.58;51.08;101981.09;5094775;28;20039;-81
2024/01/21 04:06:26;;;;;;;1.30;1.30;;;;;;;2.66;50.59;101975.22;5093755;28;20024;-82
2024/01/21 04:08:52;;;;;;;0.20;0.20;;;;;;;2.61;50.23;101954.13;5094613;28;20024;-82
2024/01/21 04:11:18;;;;;;;0.20;0.20;;;;;;;2.68;50.71;101929.03;5095281;28;20043;-82
2024/01/21 04:13:44;;;;;;;0.20;0.20;;;;;;;2.77;50.36;101937.16;5093176;28;20035;-82
2024/01/21 04:16:10;;;;;;;0.20;0.20;;;;;;;2.77;50.60;101936.25;5090936;28;20036;-82
2024/01/21 04:18:36;;;;;;;0.20;0.20;;;;;;;2.74;50.49;101937.97;5094027;28;20038;-82
2024/01/21 04:21:03;;;;;;;0.35;0.35;;;;;;;2.85;50.18;101938.25;5097077;28;20115;-82
2024/01/21 04:23:29;;;;;;;0.20;0.20;;;;;;;2.81;50.20;101951.22;5099128;28;20028;-82
2024/01/21 04:25:55;;;;;;;0.20;0.20;;;;;;;2.77;50.91;101955.47;5098418;28;20036;-82
2024/01/21 04:28:21;;;;;;;0.65;0.65;;;;;;;2.89;50.04;101928.75;5094924;28;20495;-80
2024/01/21 04:30:47;;;;;;;3.35;3.08;;;;;;;2.97;49.99;101921.16;5098885;28;20430;-81
2024/01/21 04:33:14;;;;;;;0.57;0.57;;;;;;;2.94;49.99;101921.06;5099188;28;20483;-80
2024/01/21 04:35:40;;;;;;;0.20;0.20;;;;;;;2.86;49.73;101937.41;5097142;28;20491;-81
2024/01/21 04:38:06;;;;;;;0.20;0.20;;;;;;;2.85;49.99;101925.16;5098232;28;20495;-81
2024/01/21 04:40:32;;;;;;;0.30;0.30;;;;;;;2.98;49.89;101931.66;5097573;28;20374;-81
2024/01/21 04:42:58;;;;;;;0.20;0.20;;;;;;;2.97;49.58;101929.88;5091284;28;20032;-81
2024/01/21 04:45:24;;;;;;;0.20;0.20;;;;;;;2.98;49.81;101933.38;5093866;28;20584;-81
2024/01/21 04:47:51;;;;;;;0.10;0.10;;;;;;;2.90;49.79;101927.94;5093445;28;20348;-81
2024/01/21 04:50:17;;;;;;;0.20;0.20;;;;;;;3.00;49.06;101921.22;5089648;28;20029;-81
2024/01/21 04:52:43;;;;;;;0.20;0.20;;;;;;;3.01;49.58;101928.25;5097282;28;20048;-80
2024/01/21 04:55:09;;;;;;;0.30;0.30;;;;;;;3.08;49.38;101943.28;5099012;28;20039;-80
2024/01/21 04:57:35;;;;;;;0.55;0.55;;;;;;;2.98;49.81;101926.44;5096532;28;20029;-80
2024/01/21 05:00:02;;;;;;;1.05;1.05;;;;;;;3.14;49.01;101914.66;5096360;28;20035;-80
2024/01/21 05:02:28;;;;;;;0.20;0.20;;;;;;;3.05;49.05;101914.38;5100452;28;20030;-80
2024/01/21 05:04:55;;;;;;;0.20;0.20;;;;;;;3.06;49.14;101905.69;5099960;28;20059;-80
2024/01/21 05:07:21;;;;;;;0.40;0.40;;;;;;;3.19;48.96;101918.28;5099337;28;20032;-81
2024/01/21 05:09:47;;;;;;;0.20;0.20;;;;;;;3.20;49.34;101908.69;5097776;28;20040;-81
2024/01/21 05:12:13;;;;;;;0.20;0.20;;;;;;;3.18;48.95;101895.56;5095978;28;20032;-81
2024/01/21 05:14:39;;;;;;;0.22;0.22;;;;;;;3.17;49.32;101849.25;5095805;28;20047;-81
2024/01/21 05:17:06;;;;;;;0.20;0.20;;;;;;;3.17;49.21;101851.00;5102447;28;20027;-81
2024/01/21 05:19:32;;;;;;;0.10;0.10;;;;;;;3.22;49.23;101823.19;5089788;28;20024;-81
2024/01/21 05:21:58;;;;;;;0.20;0.20;;;;;;;3.24;49.11;101824.13;5097443;28;20066;-81
2024/01/21 05:24:24;;;;;;;0.20;0.20;;;;;;;3.19;49.87;101857.16;5098446;28;20044;-81
2024/01/21 05:26:50;;;;;;;1.50;1.40;;;;;;;3.16;49.89;101829.16;5091560;28;20035;-81
2024/01/21 05:29:16;;;;;;;0.20;0.20;;;;;;;3.17;49.61;101851.00;5097398;28;20036;-81
2024/01/21 05:31:42;;;;;;;0.13;0.13;;;;;;;3.21;49.89;101806.59;5088506;28;20025;-81
2024/01/21 05:34:09;;;;;;;0.20;0.20;;;;;;;3.15;49.59;101842.22;5090497;28;20024;-81
2024/01/21 05:36:35;;;;;;;0.45;0.45;;;;;;;3.07;49.97;101828.91;5095239;28;20047;-81
2024/01/21 05:39:01;;;;;;;0.20;0.20;;;;;;;3.13;50.00;101829.09;5097864;28;20032;-81
2024/01/21 05:41:28;;;;;;;0.20;0.20;;;;;;;3.19;49.90;101833.59;5096547;28;20025;-81
2024/01/21 05:43:55;;;;;;;2.45;0.85;;;;;;;3.19;50.45;101849.28;5100513;28;20459;-81
2024/01/21 05:46:21;;;;;;;0.20;0.20;;;;;;;3.13;50.11;101836.94;5092411;28;20062;-81
2024/01/21 05:48:47;;;;;;;0.20;0.20;;;;;;;3.26;50.34;101866.94;5087627;28;20100;-81
2024/01/21 05:51:13;;;;;;;0.10;0.10;;;;;;;3.24;50.02;101872.16;5098274;28;20051;-81
2024/01/21 05:53:41;;;;;;;0.20;0.20;;;;;;;3.31;50.47;101865.34;5088467;28;20052;-81
2024/01/21 05:56:08;;;;;;;0.20;0.20;;;;;;;3.32;49.90;101859.25;5106833;28;20503;-81
2024/01/21 05:58:35;;;;;;;0.65;0.65;;;;;;;3.38;49.75;101835.84;5108136;28;20047;-80
2024/01/21 06:01:02;;;;;;;0.40;0.40;;;;;;;3.33;49.08;101860.16;5096950;28;20058;-80
2024/01/21 06:03:28;;;;;;;0.20;0.20;;;;;;;3.50;49.26;101840.53;5105044;28;20024;-80
2024/01/21 06:05:56;;;;;;;0.20;0.20;;;;;;;3.54;49.24;101863.31;5098812;28;20033;-80
2024/01/21 06:08:22;;;;;;;0.20;0.20;;;;;;;3.47;49.18;101873.63;5088501;28;20028;-81
2024/01/21 06:10:48;;;;;;;0.17;0.17;;;;;;;3.58;48.87;101884.34;5096822;28;20024;-81
2024/01/21 06:13:14;;;;;;;0.13;0.13;;;;;;;3.66;49.07;101885.44;5101925;28;20036;-81
2024/01/21 06:15:41;;;;;;;0.20;0.20;;;;;;;3.68;48.48;101887.25;5104113;28;20036;-81
2024/01/21 06:18:07;;;;;;;0.20;0.20;;;;;;;3.64;47.80;101900.22;5110622;28;20054;-81
2024/01/21 06:20:33;;;;;;;0.25;0.25;;;;;;;3.61;48.27;101897.53;5101316;28;20028;-79
2024/01/21 06:22:59;;;;;;;0.28;0.28;;;;;;;3.68;47.45;101882.00;5096755;28;20039;-79
2024/01/21 06:25:25;;;;;;;1.40;1.30;;;;;;;3.62;46.99;101866.13;5106997;28;20035;-79
2024/01/21 06:27:51;;;;;;;0.20;0.20;;;;;;;3.72;47.70;101872.50;5101040;28;20020;-80
2024/01/21 06:30:21;;;;;;;1.10;1.10;;;;;;;3.68;47.52;101875.91;5084358;28;20040;-80
2024/01/21 06:32:47;;;;;;;0.20;0.20;;;;;;;3.80;47.77;101875.28;5082521;28;20028;-80
2024/01/21 06:35:13;;;;;;;1.00;1.00;;;;;;;3.88;47.50;101869.38;5094561;28;20024;-80
2024/01/21 06:37:39;;;;;;;0.20;0.20;;;;;;;3.84;47.67;101848.34;5089978;28;20029;-79
2024/01/21 06:40:07;;;;;;;0.15;0.15;;;;;;;3.89;47.91;101836.22;5092091;28;20037;-80
2024/01/21 06:42:33;;;;;;;0.20;0.20;;;;;;;3.73;47.57;101817.47;5094479;28;20039;-79
2024/01/21 06:44:59;;;;;;;0.20;0.20;;;;;;;3.86;47.52;101787.22;5097787;28;20055;-79
2024/01/21 06:47:25;;;;;;;0.10;0.10;;;;;;;3.81;48.09;101766.97;5103676;28;20056;-79
2024/01/21 06:49:52;;;;;;;0.10;0.10;;;;;;;3.79;48.22;101779.16;5103336;28;20107;-79
2024/01/21 06:52:18;;;;;;;0.20;0.20;;;;;;;3.79;47.80;101803.66;5094508;28;20407;-79
2024/01/21 06:54:44;;;;;;;0.20;0.20;;;;;;;3.79;48.25;101790.53;5096931;28;20024;-79
2024/01/21 06:57:10;;;;;;;0.20;0.20;;;;;;;3.91;47.81;101789.03;5095204;28;20036;-80
2024/01/21 06:59:36;;;;;;;0.20;0.20;;;;;;;3.94;48.31;101774.28;5094369;28;20120;-81
2024/01/21 07:02:03;;;;;;;0.20;0.20;;;;;;;3.84;48.09;101780.16;5088366;28;20029;-81
2024/01/21 07:04:29;;;;;;;0.20;0.20;;;;;;;3.65;48.91;101791.94;5093540;28;20063;-81
2024/01/21 07:06:55;;;;;;;0.52;0.52;;;;;;;3.69;49.03;101799.03;5087757;28;20028;-81
2024/01/21 07:09:21;;;;;;;0.15;0.15;;;;;;;3.60;48.00;101798.81;5090528;28;20036;-79
2024/01/21 07:11:47;;;;;;;0.20;0.20;;;;;;;3.58;48.46;101801.41;5093290;28;20114;-79
2024/01/21 07:14:15;;;;;;;0.50;0.50;;;;;;;3.72;47.92;101817.44;5091240;28;20373;-80
2024/01/21 07:16:41;;;;;;;4.95;3.28;;;;;;;3.61;47.82;101814.56;5090865;28;20024;-80
2024/01/21 07:19:07;;;;;;;0.20;0.20;;;;;;;3.75;48.35;101830.66;5076217;28;20033;-79
2024/01/21 07:21:33;;;;;;;0.13;0.13;;;;;;;3.86;48.29;101850.13;5087725;28;20032;-79
2024/01/21 07:24:00;;;;;;;0.20;0.20;;;;;;;3.97;48.27;101833.75;5085220;28;20434;-79
2024/01/21 07:26:27;;;;;;;0.20;0.20;;;;;;;4.01;47.96;101843.47;5083404;28;20039;-80
2024/01/21 07:28:54;;;;;;;0.20;0.20;;;;;;;4.03;48.44;101841.78;5085727;28;20051;-79
2024/01/21 07:31:20;;;;;;;0.32;0.32;;;;;;;4.07;48.86;101848.84;5084577;28;20028;-80
2024/01/21 07:33:46;;;;;;;0.10;0.10;;;;;;;3.99;48.72;101835.56;5092819;28;20032;-80
2024/01/21 07:36:12;;;;;;;0.28;0.28;;;;;;;3.84;49.03;101846.59;5099225;28;20032;-80
2024/01/21 07:38:38;;;;;;;0.30;0.30;;;;;;;3.62;49.25;101850.41;5095222;28;20471;-80
2024/01/21 07:41:04;;;;;;;0.10;0.10;;;;;;;3.76;49.31;101860.34;5087328;28;20116;-79
2024/01/21 07:43:31;;;;;;;0.20;0.20;;;;;;;3.87;49.38;101865.00;5093687;28;20097;-80
2024/01/21 07:45:57;;;;;;;0.10;0.10;;;;;;;3.85;49.37;101878.91;5084492;28;20028;-80
2024/01/21 07:48:23;;;;;;;0.10;0.10;;;;;;;3.79;49.15;101879.66;5090366;28;20097;-78
2024/01/21 07:50:50;;;;;;;0.20;0.20;;;;;;;4.00;49.38;101873.16;5077297;28;20035;-78
2024/01/21 07:53:19;;;;;;;0.10;0.10;;;;;;;4.00;49.68;101862.66;5076271;28;20024;-78
2024/01/21 07:55:45;;;;;;;0.20;0.20;;;;;;;4.05;49.51;101867.19;5095425;28;20024;-79
2024/01/21 07:58:15;;;;;;;0.30;0.30;;;;;;;4.04;49.98;101870.66;5099404;28;20050;-79
2024/01/21 08:00:42;;;;;;;0.10;0.10;;;;;;;4.03;49.70;101857.50;5092921;28;20024;-78
2024/01/21 08:03:09;;;;;;;0.15;0.15;;;;;;;4.00;49.98;101858.31;5090804;28;20086;-79
2024/01/21 08:05:35;;;;;;;0.10;0.10;;;;;;;4.12;49.92;101843.72;5090992;28;20105;-80
2024/01/21 08:08:02;;;;;;;0.40;0.40;;;;;;;4.12;50.09;101844.59;5079148;28;20056;-79
2024/01/21 08:10:28;;;;;;;0.17;0.17;;;;;;;4.10;50.56;101864.66;5090951;28;20074;-79
2024/01/21 08:12:54;;;;;;;0.55;0.55;;;;;;;4.19;50.54;101871.88;5093004;28;20024;-80
2024/01/21 08:15:21;;;;;;;0.10;0.10;;;;;;;4.15;50.80;101884.03;5096325;28;20039;-80
2024/01/21 08:17:47;;;;;;;0.60;0.60;;;;;;;4.25;50.67;101894.72;5094269;28;20036;-79
2024/01/21 08:20:13;;;;;;;0.20;0.20;;;;;;;4.21;51.13;101897.28;5087957;28;20064;-80
2024/01/21 08:22:39;;;;;;;0.20;0.20;;;;;;;4.33;51.10;101914.16;5091394;28;20445;-79
2024/01/21 08:25:06;;;;;;;0.20;0.20;;;;;;;4.30;51.37;101932.44;5088701;28;20441;-79
2024/01/21 08:27:32;;;;;;;0.93;0.93;;;;;;;4.41;51.48;101922.19;5092653;28;20020;-79
2024/01/21 08:29:58;;;;;;;0.20;0.20;;;;;;;4.25;51.80;101905.19;5099284;28;20039;-81
2024/01/21 08:32:24;;;;;;;0.30;0.30;;;;;;;4.28;52.24;101900.03;5098149;28;20051;-85
2024/01/21 08:34:50;;;;;;;0.50;0.50;;;;;;;4.40;52.40;101887.22;5090701;28;20036;-81
2024/01/21 08:37:16;;;;;;;0.45;0.45;;;;;;;4.47;52.22;101873.34;5091074;28;20039;-81
2024/01/21 08:39:43;;;;;;;0.10;0.10;;;;;;;4.58;52.51;101893.72;5086941;28;20025;-81
2024/01/21 08:42:09;;;;;;;0.15;0.15;;;;;;;4.67;52.48;101891.25;5078011;28;20024;-81
2024/01/21 08:44:35;;;;;;;0.15;0.15;;;;;;;4.54;53.65;101901.50;5078996;28;20398;-80
2024/01/21 08:47:02;;;;;;;0.13;0.13;;;;;;;4.65;53.17;101906.13;5079588;28;20115;-80
2024/01/21 08:49:28;;;;;;;0.20;0.20;;;;;;;4.64;53.63;101902.59;5087354;28;20039;-80
2024/01/21 08:51:55;;;;;;;0.10;0.10;;;;;;;4.65;53.83;101911.38;5105420;28;20066;-79
2024/01/21 08:54:21;;;;;;;0.10;0.10;;;;;;;4.59;54.43;101906.00;5100787;28;20039;-78
2024/01/21 08:56:48;;;;;;;0.15;0.15;;;;;;;4.64;54.55;101905.22;5096233;28;20070;-79
2024/01/21 08:59:14;;;;;;;0.32;0.32;;;;;;;4.67;54.82;101901.78;5097846;28;20032;-80
2024/01/21 09:01:40;;;;;;;0.20;0.20;;;;;;;4.59;55.35;101888.47;5097661;28;20118;-81
2024/01/21 09:04:06;;;;;;;0.32;0.32;;;;;;;4.78;55.38;101894.13;5091099;28;20047;-81
2024/01/21 09:06:32;;;;;;;0.20;0.20;;;;;;;4.81;55.20;101902.06;5091828;28;20036;-80
2024/01/21 09:08:58;;;;;;;0.20;0.20;;;;;;;4.95;55.18;101912.88;5096003;28;20079;-80
2024/01/21 09:11:25;;;;;;;0.40;0.40;;;;;;;4.85;55.44;101931.03;5086191;28;20028;-80
2024/01/21 09:13:51;;;;;;;1.60;1.50;;;;;;;4.99;55.46;101927.81;5097340;28;20085;-80
2024/01/21 09:16:19;;;;;;;2.60;2.40;;;;;;;4.97;56.09;101934.78;5092248;28;20024;-81
2024/01/21 09:18:46;;;;;;;0.10;0.10;;;;;;;4.96;56.14;101933.91;5094086;28;20024;-81
2024/01/21 09:21:13;;;;;;;0.20;0.20;;;;;;;5.06;56.34;101934.06;5099200;28;20077;-80
2024/01/21 09:23:39;;;;;;;0.30;0.30;;;;;;;5.16;56.13;101921.16;5099277;28;20020;-81
2024/01/21 09:26:05;;;;;;;0.20;0.20;;;;;;;5.08;56.71;101922.75;5098328;28;20414;-80
2024/01/21 09:28:31;;;;;;;0.55;0.55;;;;;;;4.96;57.54;101927.75;5097807;28;20092;-80
2024/01/21 09:30:57;;;;;;;1.23;1.13;;;;;;;5.11;57.31;101909.69;5098808;28;20024;-80
2024/01/21 09:33:23;;;;;;;0.17;0.17;;;;;;;5.13;57.44;101910.59;5085146;28;20099;-80
2024/01/21 09:35:50;;;;;;;0.10;0.10;;;;;;;5.17;57.60;101917.69;5100583;28;20032;-84
2024/01/21 09:38:18;;;;;;;0.10;0.10;;;;;;;5.14;57.73;101922.00;5096852;28;20072;-81
2024/01/21 09:40:51;;;;;;;0.65;0.65;;;;;;;5.15;58.07;101911.50;5089572;28;20557;-81
2024/01/21 09:43:17;;;;;;;0.77;0.77;;;;;;;5.13;58.89;101904.47;5090028;28;20081;-80
2024/01/21 09:45:44;;;;;;;0.20;0.20;;;;;;;5.22;59.10;101903.75;5098802;28;20114;-80
2024/01/21 09:48:11;;;;;;;0.20;0.20;;;;;;;5.25;58.96;101893.31;5093642;28;20276;-79
2024/01/21 09:50:38;;;;;;;0.30;0.30;;;;;;;5.27;59.35;101896.84;5099699;28;20058;-82
2024/01/21 09:53:05;;;;;;;0.10;0.10;;;;;;;5.28;59.68;101895.97;5097568;28;20087;-83
2024/01/21 09:55:31;;;;;;;0.20;0.20;;;;;;;5.27;60.18;101875.81;5093973;28;20066;-81
2024/01/21 09:58:02;;;;;;;1.90;1.75;;;;;;;5.24;60.60;101886.28;5092451;28;20029;-82
2024/01/21 10:00:29;;;;;;;0.10;0.10;;;;;;;5.34;60.44;101885.59;5087296;28;21242;-80
2024/01/21 10:02:55;;;;;;;0.32;0.32;;;;;;;5.29;61.22;101908.28;5079850;28;20400;-80
2024/01/21 10:05:21;;;;;;;0.68;0.68;;;;;;;5.42;61.20;101897.13;5096795;28;20089;-80
2024/01/21 10:07:48;;;;;;;0.32;0.32;;;;;;;5.32;61.97;101892.53;5090550;28;20036;-80
2024/01/21 10:10:15;;;;;;;0.10;0.10;;;;;;;5.38;62.08;101900.53;5091674;28;20036;-81
2024/01/21 10:12:42;;;;;;;0.10;0.10;;;;;;;5.49;62.06;101898.13;5096247;28;20027;-80
2024/01/21 10:15:11;;;;;;;0.20;0.20;;;;;;;5.53;62.33;101899.06;5095997;28;20398;-80
2024/01/21 10:17:37;;;;;;;0.17;0.17;;;;;;;5.57;62.27;101891.25;5096339;28;20055;-81
2024/01/21 10:20:09;;;;;;;0.20;0.20;;;;;;;5.53;62.64;101884.16;5095782;28;20024;-80
2024/01/21 10:22:35;;;;;;;0.17;0.17;;;;;;;5.53;62.65;101904.31;5090455;28;20025;-81
2024/01/21 10:25:03;;;;;;;0.20;0.20;;;;;;;5.56;62.68;101888.59;5094863;28;20044;-81
2024/01/21 10:27:29;;;;;;;0.20;0.20;;;;;;;5.70;62.50;101881.84;5096227;28;20119;-81
2024/01/21 10:29:58;;;;;;;1.77;1.67;;;;;;;5.76;63.06;101879.31;5097465;28;20020;-81
2024/01/21 10:32:26;;;;;;;0.20;0.20;;;;;;;5.81;62.64;101869.75;5096615;28;20065;-81
2024/01/21 10:34:52;;;;;;;0.20;0.20;;;;;;;5.85;62.60;101869.81;5097257;28;20028;-82
2024/01/21 10:37:19;;;;;;;0.20;0.20;;;;;;;5.83;62.65;101862.78;5096517;28;20036;-82
2024/01/21 10:39:47;;;;;;;0.38;0.38;;;;;;;5.77;63.18;101867.94;5094037;28;20043;-82
2024/01/21 10:42:14;;;;;;;0.20;0.20;;;;;;;5.89;62.68;101871.63;5095041;28;20032;-81
2024/01/21 10:44:41;;;;;;;0.52;0.52;;;;;;;5.90;62.63;101869.00;5096659;28;20578;-81
2024/01/21 10:47:09;;;;;;;0.20;0.20;;;;;;;5.85;63.21;101864.56;5096262;28;20461;-80
2024/01/21 10:49:35;;;;;;;0.10;0.10;;;;;;;5.80;63.31;101859.22;5096308;28;20020;-79
2024/01/21 10:52:02;;;;;;;2.45;1.27;;;;;;;5.71;63.38;101859.03;5094992;28;20043;-79
2024/01/21 10:54:28;;;;;;;0.20;0.20;;;;;;;5.78;63.66;101859.19;5095815;28;20032;-80
2024/01/21 10:56:55;;;;;;;0.50;0.50;;;;;;;5.89;63.03;101863.72;5092663;28;20072;-79
2024/01/21 10:59:22;;;;;;;0.90;0.90;;;;;;;5.99;62.99;101878.81;5076502;28;20021;-79
2024/01/21 11:01:49;;;;;;;0.20;0.20;;;;;;;5.92;62.88;101871.66;5076187;28;20029;-81
2024/01/21 11:04:16;;;;;;;0.20;0.20;;;;;;;5.86;62.81;101882.06;5076644;28;20039;-79
2024/01/21 11:06:48;;;;;;;0.20;0.20;;;;;;;5.98;62.49;101887.53;5076341;28;20880;-79
2024/01/21 11:09:17;;;;;;;0.20;0.20;;;;;;;6.02;62.44;101880.63;5085012;28;20052;-81
2024/01/21 11:11:48;;;;;;;0.20;0.20;;;;;;;5.95;62.65;101876.97;5083252;28;20088;-80
2024/01/21 11:14:35;;;;;;;0.40;0.40;;;;;;;6.08;62.01;101884.25;5076696;28;20074;-80
2024/01/21 11:17:07;;;;;;;0.20;0.20;;;;;;;6.03;62.38;101863.97;5076243;28;20035;-81
2024/01/21 11:22:26;;;;;;;0.40;0.40;;;;;;;5.99;62.11;101879.72;5108019;27;20377;-82
2024/01/21 11:24:54;;;;;;;0.20;0.20;;;;;;;6.06;62.25;101877.19;5094109;28;20114;-81
2024/01/21 11:30:00;;;;;;;0.30;0.30;;;;;;;6.04;62.43;101874.50;5044867;28;20415;-84
2024/01/21 11:32:29;;;;;;;0.57;0.57;;;;;;;6.03;62.55;101854.34;5048538;28;20052;-83
2024/01/21 11:35:04;;;;;;;0.50;0.50;;;;;;;5.95;62.63;101856.81;5047071;28;20081;-83
2024/01/21 11:37:30;;;;;;;1.10;1.10;;;;;;;6.10;62.88;101848.28;5049713;28;20095;-83